createdAt,value
2022-10-25T00:01:20.118Z,13.50
2022-10-25T00:03:47.253Z,13.50
2022-10-25T00:06:14.667Z,13.40
2022-10-25T00:08:41.480Z,13.40
2022-10-25T00:11:15.457Z,13.40
2022-10-25T00:13:42.419Z,13.30
2022-10-25T00:16:16.400Z,13.40
2022-10-25T00:18:43.299Z,13.40
2022-10-25T00:21:10.155Z,13.50
2022-10-25T00:23:36.990Z,13.50
2022-10-25T00:26:06.579Z,13.60
2022-10-25T00:28:33.509Z,13.60
2022-10-25T00:31:05.776Z,13.60
2022-10-25T00:33:33.649Z,13.70
2022-10-25T00:36:12.361Z,13.70
2022-10-25T00:38:39.733Z,13.70
2022-10-25T00:41:07.237Z,13.70
2022-10-25T00:43:49.669Z,13.70
2022-10-25T00:46:19.905Z,13.80
2022-10-25T00:49:26.394Z,13.80
2022-10-25T00:51:58.038Z,13.80
2022-10-25T00:54:29.430Z,13.80
2022-10-25T00:56:59.762Z,13.80
2022-10-25T00:59:28.694Z,13.80
2022-10-25T01:01:56.411Z,13.80
2022-10-25T01:04:27.929Z,13.80
2022-10-25T01:06:54.925Z,13.80
2022-10-25T01:09:28.217Z,13.80
2022-10-25T01:11:55.345Z,13.90
2022-10-25T01:14:23.222Z,13.90
2022-10-25T01:17:14.708Z,13.90
2022-10-25T01:20:06.464Z,13.90
2022-10-25T01:22:43.999Z,13.90
2022-10-25T01:25:17.019Z,13.90
2022-10-25T01:28:04.456Z,13.70
2022-10-25T01:31:06.204Z,13.60
2022-10-25T01:33:46.485Z,13.60
2022-10-25T01:36:39.093Z,13.50
2022-10-25T01:39:24.752Z,13.40
2022-10-25T01:42:12.112Z,13.40
2022-10-25T01:44:56.622Z,13.40
2022-10-25T01:48:12.646Z,13.40
2022-10-25T01:50:43.083Z,13.30
2022-10-25T01:53:10.460Z,13.30
2022-10-25T01:55:47.255Z,13.30
2022-10-25T01:58:40.974Z,13.30
2022-10-25T02:01:42.060Z,13.30
2022-10-25T02:04:11.382Z,13.40
2022-10-25T02:06:49.596Z,13.40
2022-10-25T02:09:32.048Z,13.40
2022-10-25T02:12:00.797Z,13.40
2022-10-25T02:14:40.320Z,13.50
2022-10-25T02:17:22.313Z,13.50
2022-10-25T02:19:53.395Z,13.50
2022-10-25T02:22:23.970Z,13.60
2022-10-25T02:24:51.778Z,13.60
2022-10-25T02:27:23.263Z,13.60
2022-10-25T02:29:52.206Z,13.60
2022-10-25T02:32:19.583Z,13.60
2022-10-25T02:34:50.363Z,13.60
2022-10-25T02:37:17.863Z,13.60
2022-10-25T02:39:46.004Z,13.70
2022-10-25T02:42:12.981Z,13.70
2022-10-25T02:44:40.016Z,13.80
2022-10-25T02:47:07.218Z,13.70
2022-10-25T02:49:34.087Z,13.80
2022-10-25T02:52:00.917Z,13.80
2022-10-25T02:54:27.848Z,13.90
2022-10-25T02:56:55.007Z,13.90
2022-10-25T02:59:22.070Z,13.90
2022-10-25T03:01:49.523Z,13.90
2022-10-25T03:04:16.459Z,13.90
2022-10-25T03:06:43.320Z,13.90
2022-10-25T03:09:10.185Z,13.90
2022-10-25T03:11:36.974Z,13.80
2022-10-25T03:14:03.768Z,13.70
2022-10-25T03:16:30.640Z,13.70
2022-10-25T03:18:58.783Z,13.70
2022-10-25T03:21:26.161Z,13.70
2022-10-25T03:23:53.416Z,13.70
2022-10-25T03:26:20.263Z,13.70
2022-10-25T03:28:47.230Z,13.70
2022-10-25T03:31:16.169Z,13.70
2022-10-25T03:33:43.632Z,13.80
2022-10-25T03:36:11.077Z,13.80
2022-10-25T03:38:37.892Z,13.80
2022-10-25T03:41:05.405Z,13.70
2022-10-25T03:43:32.338Z,13.70
2022-10-25T03:45:59.335Z,13.70
2022-10-25T03:48:26.202Z,13.80
2022-10-25T03:50:54.285Z,13.70
2022-10-25T03:53:21.218Z,13.70
2022-10-25T03:55:48.421Z,13.70
2022-10-25T03:58:15.546Z,13.80
2022-10-25T04:00:42.803Z,13.70
2022-10-25T04:03:09.934Z,13.80
2022-10-25T04:05:36.853Z,13.70
2022-10-25T04:08:03.915Z,13.70
2022-10-25T04:10:30.829Z,13.70
2022-10-25T04:12:57.841Z,13.70
2022-10-25T04:15:25.072Z,13.70
2022-10-25T04:17:52.916Z,13.70
2022-10-25T04:20:20.550Z,13.80
2022-10-25T04:22:54.185Z,13.80
2022-10-25T04:25:21.436Z,13.80
2022-10-25T04:27:48.693Z,13.80
2022-10-25T04:30:15.817Z,13.80
2022-10-25T04:32:42.882Z,13.80
2022-10-25T04:35:11.121Z,13.80
2022-10-25T04:37:38.092Z,13.80
2022-10-25T04:40:05.625Z,13.70
2022-10-25T04:42:35.822Z,13.70
2022-10-25T04:45:03.062Z,13.60
2022-10-25T04:47:33.339Z,13.60
2022-10-25T04:50:00.644Z,13.60
2022-10-25T04:52:29.948Z,13.60
2022-10-25T04:54:57.155Z,13.50
2022-10-25T04:57:24.864Z,13.40
2022-10-25T04:59:52.760Z,13.40
2022-10-25T05:02:19.937Z,13.40
2022-10-25T05:04:46.740Z,13.40
2022-10-25T05:07:13.614Z,13.30
2022-10-25T05:09:43.823Z,13.20
2022-10-25T05:12:13.510Z,13.20
2022-10-25T05:14:40.286Z,13.20
2022-10-25T05:17:07.133Z,13.20
2022-10-25T05:19:34.009Z,13.10
2022-10-25T05:22:00.852Z,13.10
2022-10-25T05:24:28.038Z,13.10
2022-10-25T05:26:54.916Z,13.00
2022-10-25T05:29:21.890Z,13.00
2022-10-25T05:31:48.727Z,13.00
2022-10-25T05:34:15.615Z,13.00
2022-10-25T05:36:42.418Z,13.00
2022-10-25T05:39:09.180Z,13.00
2022-10-25T05:41:37.295Z,13.00
2022-10-25T05:44:05.810Z,12.90
2022-10-25T05:46:33.851Z,12.90
2022-10-25T05:49:00.928Z,12.90
2022-10-25T05:51:36.203Z,12.90
2022-10-25T05:54:15.392Z,12.90
2022-10-25T05:56:43.290Z,12.90
2022-10-25T05:59:15.071Z,12.90
2022-10-25T06:01:46.283Z,12.90
2022-10-25T06:04:13.709Z,12.90
2022-10-25T06:06:41.499Z,12.80
2022-10-25T06:09:09.350Z,12.80
2022-10-25T06:11:37.388Z,12.80
2022-10-25T06:14:05.093Z,12.80
2022-10-25T06:16:32.598Z,12.80
2022-10-25T06:18:59.659Z,12.80
2022-10-25T06:21:28.414Z,12.80
2022-10-25T06:23:56.588Z,12.70
2022-10-25T06:26:29.094Z,12.70
2022-10-25T06:28:59.164Z,12.70
2022-10-25T06:31:27.311Z,12.70
2022-10-25T06:33:54.117Z,12.70
2022-10-25T06:36:23.638Z,12.70
2022-10-25T06:38:50.924Z,12.80
2022-10-25T06:41:20.619Z,12.70
2022-10-25T06:43:47.891Z,12.80
2022-10-25T06:46:23.325Z,12.80
2022-10-25T06:48:51.856Z,12.90
2022-10-25T06:51:18.997Z,13.00
2022-10-25T06:53:45.908Z,13.10
2022-10-25T06:56:14.821Z,13.30
2022-10-25T06:58:42.391Z,13.50
2022-10-25T07:01:15.853Z,13.80
2022-10-25T07:03:43.253Z,14.00
2022-10-25T07:06:15.762Z,14.30
2022-10-25T07:08:45.173Z,14.50
2022-10-25T07:11:20.323Z,14.60
2022-10-25T07:13:50.165Z,14.60
2022-10-25T07:16:18.896Z,14.70
2022-10-25T07:18:46.429Z,14.60
2022-10-25T07:21:16.168Z,14.40
2022-10-25T07:23:44.053Z,14.50
2022-10-25T07:26:14.017Z,14.90
2022-10-25T07:28:42.247Z,15.30
2022-10-25T07:31:13.260Z,15.60
2022-10-25T07:33:40.171Z,15.90
2022-10-25T07:36:11.007Z,16.00
2022-10-25T07:38:38.637Z,16.00
2022-10-25T07:41:05.969Z,15.70
2022-10-25T07:43:33.005Z,15.60
2022-10-25T07:46:00.005Z,15.70
2022-10-25T07:48:26.975Z,16.20
2022-10-25T07:50:53.761Z,16.30
2022-10-25T07:53:20.680Z,16.50
2022-10-25T07:55:55.377Z,16.30
2022-10-25T07:58:22.474Z,16.50
2022-10-25T08:00:49.578Z,16.70
2022-10-25T08:03:18.122Z,16.90
2022-10-25T08:05:48.333Z,17.20
2022-10-25T08:08:15.384Z,17.30
2022-10-25T08:10:44.269Z,17.20
2022-10-25T08:13:11.818Z,16.70
2022-10-25T08:15:40.947Z,16.20
2022-10-25T08:18:09.624Z,16.00
2022-10-25T08:21:00.855Z,15.90
2022-10-25T08:23:25.265Z,15.90
2022-10-25T08:25:52.401Z,16.00
2022-10-25T08:28:19.436Z,16.00
2022-10-25T08:30:46.754Z,16.10
2022-10-25T08:33:13.808Z,16.10
2022-10-25T08:35:40.613Z,16.00
2022-10-25T08:38:07.472Z,15.90
2022-10-25T08:40:53.121Z,15.80
2022-10-25T08:43:40.488Z,15.70
2022-10-25T08:46:15.378Z,15.80
2022-10-25T08:48:48.551Z,15.80
2022-10-25T08:51:29.710Z,15.70
2022-10-25T08:54:02.347Z,15.70
2022-10-25T08:56:30.764Z,15.90
2022-10-25T08:59:01.295Z,16.00
2022-10-25T09:01:44.900Z,16.00
2022-10-25T09:04:11.823Z,16.00
2022-10-25T09:06:43.871Z,15.90
2022-10-25T09:09:44.878Z,15.70
2022-10-25T09:12:36.918Z,15.80
2022-10-25T09:15:26.509Z,15.80
2022-10-25T09:18:06.462Z,15.90
2022-10-25T09:20:41.581Z,15.90
2022-10-25T09:23:32.133Z,15.90
2022-10-25T09:26:04.397Z,16.00
2022-10-25T09:28:56.617Z,16.00
2022-10-25T09:31:25.462Z,16.00
2022-10-25T09:34:03.191Z,16.00
2022-10-25T09:36:38.125Z,16.00
2022-10-25T09:39:22.427Z,15.90
2022-10-25T09:41:54.544Z,15.90
2022-10-25T09:44:30.295Z,16.00
2022-10-25T09:47:08.383Z,16.00
2022-10-25T09:49:57.463Z,16.10
2022-10-25T09:52:42.223Z,16.20
2022-10-25T09:55:24.646Z,16.20
2022-10-25T09:57:51.476Z,16.10
2022-10-25T10:00:18.387Z,16.10
2022-10-25T10:02:45.280Z,16.00
2022-10-25T10:05:16.341Z,16.10
2022-10-25T10:07:45.266Z,16.10
2022-10-25T10:10:23.345Z,16.20
2022-10-25T10:13:11.918Z,16.20
2022-10-25T10:15:47.550Z,16.30
2022-10-25T10:18:34.640Z,16.30
2022-10-25T10:21:04.368Z,16.30
2022-10-25T10:23:38.224Z,16.20
2022-10-25T10:26:25.813Z,16.20
2022-10-25T10:29:11.304Z,16.30
2022-10-25T10:31:44.912Z,16.30
2022-10-25T10:34:42.640Z,16.30
2022-10-25T10:37:26.072Z,16.30
2022-10-25T10:40:01.386Z,16.30
2022-10-25T10:42:34.961Z,16.50
2022-10-25T10:45:08.119Z,16.70
2022-10-25T10:47:50.355Z,16.70
2022-10-25T10:50:24.569Z,16.70
2022-10-25T10:53:00.670Z,16.70
2022-10-25T10:55:34.481Z,16.70
2022-10-25T10:58:07.390Z,16.60
2022-10-25T11:00:35.305Z,16.70
2022-10-25T11:03:02.189Z,16.90
2022-10-25T11:05:31.518Z,16.90
2022-10-25T11:08:01.357Z,16.90
2022-10-25T11:10:29.443Z,16.90
2022-10-25T11:13:09.942Z,17.00
2022-10-25T11:16:14.888Z,16.90
2022-10-25T11:19:03.337Z,17.00
2022-10-25T11:22:02.630Z,17.10
2022-10-25T11:24:47.786Z,17.30
2022-10-25T11:27:49.812Z,17.40
2022-10-25T11:30:19.981Z,17.50
2022-10-25T11:33:05.504Z,17.60
2022-10-25T11:36:02.259Z,17.50
2022-10-25T11:38:59.216Z,17.40
2022-10-25T11:41:44.532Z,17.30
2022-10-25T11:45:05.226Z,17.30
2022-10-25T11:48:08.744Z,17.40
2022-10-25T11:50:41.352Z,17.20
2022-10-25T11:53:32.437Z,17.10
2022-10-25T11:56:09.583Z,17.10
2022-10-25T11:58:51.155Z,17.10
2022-10-25T12:01:21.980Z,17.00
2022-10-25T12:04:12.665Z,17.00
2022-10-25T12:06:51.233Z,16.80
2022-10-25T12:09:40.146Z,16.70
2022-10-25T12:12:12.332Z,16.70
2022-10-25T12:14:43.623Z,16.60
2022-10-25T12:17:32.313Z,16.60
2022-10-25T12:20:07.362Z,16.60
2022-10-25T12:22:41.797Z,16.70
2022-10-25T12:25:17.616Z,16.70
2022-10-25T12:27:47.711Z,16.70
2022-10-25T12:30:17.037Z,16.60
2022-10-25T12:32:52.837Z,16.60
2022-10-25T12:35:29.532Z,16.70
2022-10-25T12:38:01.098Z,16.80
2022-10-25T12:40:29.220Z,16.80
2022-10-25T12:43:11.844Z,16.90
2022-10-25T12:45:49.143Z,17.00
2022-10-25T12:48:34.482Z,17.10
2022-10-25T12:51:41.361Z,17.10
2022-10-25T12:54:17.130Z,17.20
2022-10-25T12:56:48.390Z,17.20
2022-10-25T12:59:27.518Z,17.30
2022-10-25T13:02:00.185Z,17.30
2022-10-25T13:05:04.598Z,17.40
2022-10-25T13:07:35.486Z,17.50
2022-10-25T13:10:15.130Z,17.40
2022-10-25T13:12:43.474Z,17.40
2022-10-25T13:15:18.601Z,17.50
2022-10-25T13:17:59.416Z,17.50
2022-10-25T13:20:35.227Z,17.40
2022-10-25T13:23:40.781Z,17.30
2022-10-25T13:26:14.516Z,17.10
2022-10-25T13:28:50.352Z,16.90
2022-10-25T13:31:35.668Z,16.90
2022-10-25T13:34:28.397Z,16.90
2022-10-25T13:36:57.465Z,17.00
2022-10-25T13:39:45.290Z,17.00
2022-10-25T13:42:14.815Z,16.90
2022-10-25T13:45:02.306Z,16.90
2022-10-25T13:47:51.065Z,17.10
2022-10-25T13:50:29.362Z,17.20
2022-10-25T13:53:26.571Z,17.20
2022-10-25T13:55:57.714Z,17.20
2022-10-25T13:58:31.896Z,17.20
2022-10-25T14:01:20.675Z,17.20
2022-10-25T14:03:50.594Z,17.20
2022-10-25T14:06:26.332Z,17.20
2022-10-25T14:08:59.442Z,17.30
2022-10-25T14:11:32.098Z,17.30
2022-10-25T14:14:11.703Z,17.30
2022-10-25T14:16:42.286Z,17.20
2022-10-25T14:19:19.752Z,17.20
2022-10-25T14:21:48.446Z,17.20
2022-10-25T14:24:17.070Z,17.10
2022-10-25T14:27:00.808Z,17.10
2022-10-25T14:29:29.581Z,17.00
2022-10-25T14:31:57.315Z,17.10
2022-10-25T14:34:30.061Z,17.10
2022-10-25T14:36:58.353Z,17.00
2022-10-25T14:39:28.152Z,17.00
2022-10-25T14:42:00.728Z,17.00
2022-10-25T14:44:47.016Z,17.00
2022-10-25T14:47:31.112Z,16.90
2022-10-25T14:49:59.282Z,16.90
2022-10-25T14:52:27.756Z,16.90
2022-10-25T14:54:59.285Z,17.00
2022-10-25T14:57:27.406Z,17.00
2022-10-25T15:00:00.050Z,17.00
2022-10-25T15:02:39.936Z,17.10
2022-10-25T15:05:07.636Z,17.00
2022-10-25T15:07:41.322Z,16.90
2022-10-25T15:10:28.774Z,16.90
2022-10-25T15:12:55.606Z,16.90
2022-10-25T15:15:45.006Z,16.80
2022-10-25T15:18:26.909Z,16.70
2022-10-25T15:21:08.650Z,16.60
2022-10-25T15:23:36.653Z,16.50
2022-10-25T15:26:29.545Z,16.50
2022-10-25T15:29:01.510Z,16.50
2022-10-25T15:31:30.787Z,16.50
2022-10-25T15:34:05.560Z,16.40
2022-10-25T15:36:34.239Z,16.40
2022-10-25T15:39:10.429Z,16.40
2022-10-25T15:41:38.502Z,16.40
2022-10-25T15:44:05.307Z,16.40
2022-10-25T15:46:34.362Z,16.40
2022-10-25T15:51:45.965Z,16.30
2022-10-25T15:54:18.343Z,16.30
2022-10-25T15:56:45.886Z,16.20
2022-10-25T15:59:13.888Z,16.00
2022-10-25T16:01:43.468Z,15.80
2022-10-25T16:04:15.725Z,15.70
2022-10-25T16:06:44.094Z,15.50
2022-10-25T16:09:11.360Z,15.40
2022-10-25T16:11:43.621Z,15.30
2022-10-25T16:14:20.927Z,15.00
2022-10-25T16:16:47.887Z,14.80
2022-10-25T16:19:16.528Z,14.70
2022-10-25T16:21:44.216Z,14.60
2022-10-25T16:24:12.241Z,14.40
2022-10-25T16:26:42.827Z,14.20
2022-10-25T16:29:18.512Z,14.10
2022-10-25T16:31:45.430Z,13.90
2022-10-25T16:34:12.778Z,13.80
2022-10-25T16:36:39.608Z,13.70
2022-10-25T16:39:07.741Z,13.60
2022-10-25T16:41:38.459Z,13.50
2022-10-25T16:44:05.359Z,13.40
2022-10-25T16:46:32.332Z,13.30
2022-10-25T16:49:01.910Z,13.20
2022-10-25T16:51:29.234Z,13.20
2022-10-25T16:53:57.251Z,13.10
2022-10-25T16:56:24.166Z,13.00
2022-10-25T16:58:50.963Z,13.00
2022-10-25T17:01:21.837Z,12.90
2022-10-25T17:03:50.390Z,12.80
2022-10-25T17:06:39.656Z,12.70
2022-10-25T17:09:05.538Z,12.70
2022-10-25T17:11:32.330Z,12.70
2022-10-25T17:13:59.160Z,12.50
2022-10-25T17:16:25.967Z,12.50
2022-10-25T17:18:52.836Z,12.40
2022-10-25T17:21:19.755Z,12.40
2022-10-25T17:23:46.547Z,12.30
2022-10-25T17:26:13.973Z,12.30
2022-10-25T17:28:43.981Z,12.30
2022-10-25T17:31:13.698Z,12.30
2022-10-25T17:33:41.418Z,12.30
2022-10-25T17:36:13.777Z,12.20
2022-10-25T17:38:41.363Z,12.20
2022-10-25T17:41:09.069Z,12.10
2022-10-25T17:43:36.789Z,11.90
2022-10-25T17:46:06.901Z,11.80
2022-10-25T17:48:34.202Z,11.80
2022-10-25T17:51:06.855Z,11.70
2022-10-25T17:53:34.313Z,11.80
2022-10-25T17:56:16.744Z,11.70
2022-10-25T17:58:45.741Z,11.80
2022-10-25T18:01:14.296Z,11.80
2022-10-25T18:03:41.168Z,11.70
2022-10-25T18:06:11.238Z,11.60
2022-10-25T18:08:38.380Z,11.60
2022-10-25T18:11:13.949Z,11.60
2022-10-25T18:13:41.812Z,11.60
2022-10-25T18:16:09.800Z,11.50
2022-10-25T18:18:37.061Z,11.40
2022-10-25T18:21:08.885Z,11.30
2022-10-25T18:23:36.210Z,11.40
2022-10-25T18:26:04.543Z,11.30
2022-10-25T18:28:35.607Z,11.30
2022-10-25T18:31:07.892Z,11.30
2022-10-25T18:33:36.645Z,11.20
2022-10-25T18:36:10.125Z,11.20
2022-10-25T18:38:37.162Z,11.10
2022-10-25T18:41:09.190Z,11.00
2022-10-25T18:43:36.238Z,11.10
2022-10-25T18:46:03.079Z,11.00
2022-10-25T18:48:29.947Z,11.00
2022-10-25T18:50:56.987Z,11.10
2022-10-25T18:53:23.781Z,11.00
2022-10-25T18:55:53.902Z,10.90
2022-10-25T18:58:20.986Z,10.90
2022-10-25T19:00:47.772Z,10.90
2022-10-25T19:03:16.024Z,10.80
2022-10-25T19:05:43.710Z,10.90
2022-10-25T19:08:11.356Z,10.90
2022-10-25T19:10:39.962Z,10.90
2022-10-25T19:13:08.464Z,10.80
2022-10-25T19:15:35.688Z,10.80
2022-10-25T19:18:02.573Z,10.70
2022-10-25T19:20:29.460Z,10.70
2022-10-25T19:22:58.788Z,10.70
2022-10-25T19:25:29.858Z,10.60
2022-10-25T19:27:57.180Z,10.60
2022-10-25T19:30:24.585Z,10.60
2022-10-25T19:32:51.816Z,10.60
2022-10-25T19:35:19.649Z,10.50
2022-10-25T19:37:46.995Z,10.40
2022-10-25T19:40:14.107Z,10.40
2022-10-25T19:42:41.030Z,10.50
2022-10-25T19:45:08.591Z,10.40
2022-10-25T19:47:35.986Z,10.40
2022-10-25T19:50:05.604Z,10.40
2022-10-25T19:52:36.778Z,10.40
2022-10-25T19:55:06.295Z,10.50
2022-10-25T19:57:34.469Z,10.40
2022-10-25T20:00:02.015Z,10.40
2022-10-25T20:02:36.821Z,10.40
2022-10-25T20:05:03.899Z,10.40
2022-10-25T20:07:30.730Z,10.40
2022-10-25T20:09:57.561Z,10.40
2022-10-25T20:12:24.543Z,10.40
2022-10-25T20:14:51.424Z,10.30
2022-10-25T20:17:18.213Z,10.40
2022-10-25T20:19:50.887Z,10.30
2022-10-25T20:22:17.834Z,10.30
2022-10-25T20:24:44.739Z,10.20
2022-10-25T20:27:11.625Z,10.20
2022-10-25T20:29:40.180Z,10.10
2022-10-25T20:32:07.219Z,10.20
2022-10-25T20:34:35.300Z,10.10
2022-10-25T20:37:04.020Z,10.10
2022-10-25T20:39:31.273Z,10.20
2022-10-25T20:41:58.478Z,10.20
2022-10-25T20:44:25.519Z,10.20
2022-10-25T20:46:52.546Z,10.20
2022-10-25T20:49:19.551Z,10.10
2022-10-25T20:51:46.468Z,10.10
2022-10-25T20:54:13.357Z,10.20
2022-10-25T20:56:40.208Z,10.10
2022-10-25T20:59:07.458Z,10.00
2022-10-25T21:01:34.795Z,10.00
2022-10-25T21:04:01.926Z,9.90
2022-10-25T21:06:29.982Z,9.90
2022-10-25T21:08:56.925Z,9.90
2022-10-25T21:11:23.810Z,9.90
2022-10-25T21:13:50.990Z,9.90
2022-10-25T21:16:17.896Z,9.90
2022-10-25T21:18:44.852Z,9.90
2022-10-25T21:21:20.790Z,9.90
2022-10-25T21:23:48.726Z,9.90
2022-10-25T21:26:16.109Z,9.80
2022-10-25T21:28:43.085Z,9.90
2022-10-25T21:31:13.599Z,10.10
2022-10-25T21:33:49.639Z,10.10
2022-10-25T21:36:18.785Z,10.10
2022-10-25T21:38:45.597Z,10.00
2022-10-25T21:41:15.020Z,10.10
2022-10-25T21:43:49.860Z,10.20
2022-10-25T21:46:18.288Z,10.10
2022-10-25T21:48:50.799Z,10.10
2022-10-25T21:51:18.922Z,10.10
2022-10-25T21:53:46.295Z,10.30
2022-10-25T21:56:16.065Z,10.30
2022-10-25T21:58:45.108Z,10.30
2022-10-25T22:01:18.151Z,10.30
2022-10-25T22:03:45.159Z,10.30
2022-10-25T22:06:15.002Z,10.30
2022-10-25T22:08:42.785Z,10.20
2022-10-25T22:11:15.898Z,10.20
2022-10-25T22:13:43.668Z,10.20
2022-10-25T22:16:16.533Z,10.10
2022-10-25T22:18:47.968Z,10.10
2022-10-25T22:21:15.120Z,10.10
2022-10-25T22:23:45.321Z,10.00
2022-10-25T22:26:14.073Z,10.00
2022-10-25T22:28:41.508Z,10.20
2022-10-25T22:31:16.671Z,10.40
2022-10-25T22:33:44.627Z,10.40
2022-10-25T22:36:15.402Z,10.30
2022-10-25T22:38:42.796Z,10.30
2022-10-25T22:41:14.754Z,10.40
2022-10-25T22:43:42.546Z,10.40
2022-10-25T22:46:13.039Z,10.40
2022-10-25T22:48:41.434Z,10.30
2022-10-25T22:51:09.334Z,10.30
2022-10-25T22:53:37.244Z,10.30
2022-10-25T22:56:11.193Z,10.40
2022-10-25T22:58:38.701Z,10.30
2022-10-25T23:01:10.374Z,10.30
2022-10-25T23:03:39.736Z,10.40
2022-10-25T23:06:10.935Z,10.40
2022-10-25T23:08:38.070Z,10.40
2022-10-25T23:11:19.639Z,10.40
2022-10-25T23:13:46.846Z,10.40
2022-10-25T23:16:15.221Z,10.50
2022-10-25T23:18:45.196Z,10.70
2022-10-25T23:21:20.673Z,10.80
2022-10-25T23:23:47.858Z,10.90
2022-10-25T23:26:26.227Z,10.80
2022-10-25T23:28:54.150Z,10.80
2022-10-25T23:31:24.712Z,10.80
2022-10-25T23:33:53.718Z,11.00
2022-10-25T23:36:23.185Z,11.20
2022-10-25T23:38:51.651Z,11.30
2022-10-25T23:41:20.251Z,11.30
2022-10-25T23:43:47.590Z,11.20
2022-10-25T23:46:14.638Z,11.10
2022-10-25T23:48:41.632Z,11.10
2022-10-25T23:51:13.849Z,11.10
2022-10-25T23:53:43.715Z,11.10
2022-10-25T23:56:12.464Z,11.00
2022-10-25T23:58:39.638Z,11.00
